createdAt,value
2022-11-13T00:00:14.756Z,100.00
2022-11-13T00:03:02.751Z,100.00
2022-11-13T00:05:50.608Z,100.00
2022-11-13T00:08:38.822Z,100.00
2022-11-13T00:11:26.394Z,100.00
2022-11-13T00:14:16.926Z,100.00
2022-11-13T00:17:04.737Z,100.00
2022-11-13T00:19:52.513Z,100.00
2022-11-13T00:22:40.332Z,100.00
2022-11-13T00:25:28.114Z,100.00
2022-11-13T00:28:15.847Z,100.00
2022-11-13T00:31:06.563Z,100.00
2022-11-13T00:34:14.078Z,100.00
2022-11-13T00:37:02.420Z,100.00
2022-11-13T00:39:50.183Z,100.00
2022-11-13T00:42:37.927Z,100.00
2022-11-13T00:45:25.772Z,100.00
2022-11-13T00:48:16.262Z,100.00
2022-11-13T00:51:03.960Z,100.00
2022-11-13T00:53:51.980Z,100.00
2022-11-13T00:56:39.746Z,100.00
2022-11-13T00:59:27.707Z,100.00
2022-11-13T01:02:15.627Z,100.00
2022-11-13T01:05:06.373Z,100.00
2022-11-13T01:07:54.490Z,100.00
2022-11-13T01:10:43.613Z,100.00
2022-11-13T01:13:32.606Z,100.00
2022-11-13T01:16:21.323Z,100.00
2022-11-13T01:19:09.183Z,100.00
2022-11-13T01:21:59.601Z,100.00
2022-11-13T01:24:47.623Z,100.00
2022-11-13T01:27:35.656Z,100.00
2022-11-13T01:30:23.924Z,100.00
2022-11-13T01:33:11.606Z,100.00
2022-11-13T01:36:02.566Z,100.00
2022-11-13T01:38:53.862Z,100.00
2022-11-13T01:41:41.896Z,100.00
2022-11-13T01:44:47.023Z,100.00
2022-11-13T01:47:34.728Z,100.00
2022-11-13T01:50:22.633Z,100.00
2022-11-13T01:53:10.575Z,100.00
2022-11-13T01:56:00.999Z,100.00
2022-11-13T01:58:49.542Z,100.00
2022-11-13T02:01:37.545Z,100.00
2022-11-13T02:04:25.539Z,100.00
2022-11-13T02:07:14.036Z,100.00
2022-11-13T02:10:01.756Z,100.00
2022-11-13T02:12:52.946Z,100.00
2022-11-13T02:15:41.010Z,100.00
2022-11-13T02:18:29.097Z,100.00
2022-11-13T02:21:20.487Z,100.00
2022-11-13T02:24:21.814Z,100.00
2022-11-13T02:27:10.420Z,100.00
2022-11-13T02:29:58.230Z,100.00
2022-11-13T02:32:46.753Z,100.00
2022-11-13T02:35:35.995Z,100.00
2022-11-13T02:38:24.031Z,100.00
2022-11-13T02:41:14.460Z,100.00
2022-11-13T02:44:02.259Z,100.00
2022-11-13T02:46:49.975Z,100.00
2022-11-13T02:49:37.862Z,100.00
2022-11-13T02:52:26.188Z,100.00
2022-11-13T02:55:14.006Z,100.00
2022-11-13T02:58:04.557Z,100.00
2022-11-13T03:00:52.238Z,100.00
2022-11-13T03:03:56.952Z,100.00
2022-11-13T03:06:45.098Z,100.00
2022-11-13T03:09:32.774Z,100.00
2022-11-13T03:12:20.561Z,100.00
2022-11-13T03:15:12.568Z,100.00
2022-11-13T03:18:00.866Z,100.00
2022-11-13T03:20:53.889Z,100.00
2022-11-13T03:23:41.910Z,100.00
2022-11-13T03:26:30.321Z,100.00
2022-11-13T03:29:18.045Z,100.00
2022-11-13T03:32:09.000Z,100.00
2022-11-13T03:34:57.014Z,100.00
2022-11-13T03:37:45.018Z,100.00
2022-11-13T03:40:32.747Z,100.00
2022-11-13T03:43:20.601Z,100.00
2022-11-13T03:46:08.543Z,100.00
2022-11-13T03:48:58.977Z,100.00
2022-11-13T03:51:46.750Z,100.00
2022-11-13T03:54:34.295Z,100.00
2022-11-13T03:57:22.620Z,100.00
2022-11-13T04:00:11.231Z,100.00
2022-11-13T04:02:59.304Z,100.00
2022-11-13T04:05:49.967Z,100.00
2022-11-13T04:08:37.722Z,100.00
2022-11-13T04:11:25.870Z,100.00
2022-11-13T04:14:13.653Z,100.00
2022-11-13T04:17:01.324Z,100.00
2022-11-13T04:19:49.001Z,100.00
2022-11-13T04:22:39.448Z,100.00
2022-11-13T04:25:27.422Z,100.00
2022-11-13T04:28:16.536Z,100.00
2022-11-13T04:31:04.291Z,100.00
2022-11-13T04:33:52.090Z,100.00
2022-11-13T04:36:39.839Z,100.00
2022-11-13T04:39:30.270Z,100.00
2022-11-13T04:42:30.479Z,100.00
2022-11-13T04:45:18.499Z,100.00
2022-11-13T04:48:06.438Z,100.00
2022-11-13T04:50:54.465Z,100.00
2022-11-13T04:53:42.203Z,100.00
2022-11-13T04:56:32.729Z,100.00
2022-11-13T04:59:20.734Z,100.00
2022-11-13T05:02:08.800Z,100.00
2022-11-13T05:05:01.786Z,100.00
2022-11-13T05:07:52.412Z,100.00
2022-11-13T05:10:40.123Z,100.00
2022-11-13T05:13:30.974Z,100.00
2022-11-13T05:16:18.553Z,100.00
2022-11-13T05:19:07.016Z,100.00
2022-11-13T05:21:55.026Z,100.00
2022-11-13T05:24:42.788Z,100.00
2022-11-13T05:27:30.595Z,100.00
2022-11-13T05:30:21.379Z,100.00
2022-11-13T05:33:09.515Z,100.00
2022-11-13T05:35:57.332Z,100.00
2022-11-13T05:38:45.443Z,100.00
2022-11-13T05:41:33.428Z,100.00
2022-11-13T05:44:21.260Z,100.00
2022-11-13T05:47:11.688Z,100.00
2022-11-13T05:49:59.792Z,100.00
2022-11-13T05:52:48.136Z,100.00
2022-11-13T05:55:36.218Z,100.00
2022-11-13T05:58:24.030Z,100.00
2022-11-13T06:01:12.820Z,100.00
2022-11-13T06:04:03.360Z,100.00
2022-11-13T06:06:52.477Z,100.00
2022-11-13T06:09:40.472Z,100.00
2022-11-13T06:12:28.258Z,100.00
2022-11-13T06:15:17.210Z,100.00
2022-11-13T06:18:08.621Z,100.00
2022-11-13T06:20:59.021Z,100.00
2022-11-13T06:23:47.085Z,100.00
2022-11-13T06:26:35.527Z,100.00
2022-11-13T06:29:23.330Z,100.00
2022-11-13T06:32:11.519Z,100.00
2022-11-13T06:34:59.123Z,100.00
2022-11-13T06:37:49.766Z,100.00
2022-11-13T06:40:37.538Z,100.00
2022-11-13T06:43:25.321Z,100.00
2022-11-13T06:46:13.735Z,100.00
2022-11-13T06:49:01.978Z,100.00
2022-11-13T06:51:50.053Z,100.00
2022-11-13T06:54:40.563Z,100.00
2022-11-13T06:57:28.432Z,100.00
2022-11-13T07:00:17.154Z,100.00
2022-11-13T07:03:05.223Z,100.00
2022-11-13T07:05:53.392Z,100.00
2022-11-13T07:08:41.494Z,100.00
2022-11-13T07:11:31.818Z,100.00
2022-11-13T07:14:19.591Z,100.00
2022-11-13T07:17:10.192Z,100.00
2022-11-13T07:19:58.855Z,100.00
2022-11-13T07:22:47.055Z,100.00
2022-11-13T07:25:35.465Z,100.00
2022-11-13T07:28:26.425Z,100.00
2022-11-13T07:31:15.411Z,100.00
2022-11-13T07:34:03.251Z,100.00
2022-11-13T07:36:51.128Z,100.00
2022-11-13T07:39:38.914Z,100.00
2022-11-13T07:42:26.923Z,100.00
2022-11-13T07:45:17.385Z,100.00
2022-11-13T07:48:05.645Z,100.00
2022-11-13T07:50:53.781Z,100.00
2022-11-13T07:53:41.672Z,100.00
2022-11-13T07:56:29.664Z,100.00
2022-11-13T07:59:17.381Z,100.00
2022-11-13T08:02:07.821Z,100.00
2022-11-13T08:04:55.964Z,100.00
2022-11-13T08:07:47.264Z,100.00
2022-11-13T08:10:39.041Z,100.00
2022-11-13T08:13:26.904Z,100.00
2022-11-13T08:16:14.729Z,100.00
2022-11-13T08:19:05.168Z,100.00
2022-11-13T08:21:52.975Z,100.00
2022-11-13T08:24:40.719Z,100.00
2022-11-13T08:27:28.429Z,100.00
2022-11-13T08:30:17.329Z,100.00
2022-11-13T08:33:05.406Z,100.00
2022-11-13T08:35:59.397Z,100.00
2022-11-13T08:38:47.411Z,100.00
2022-11-13T08:41:35.206Z,100.00
2022-11-13T08:44:22.909Z,100.00
2022-11-13T08:47:10.754Z,100.00
2022-11-13T08:49:58.609Z,100.00
2022-11-13T08:52:49.106Z,100.00
2022-11-13T08:55:36.919Z,100.00
2022-11-13T08:58:24.973Z,100.00
2022-11-13T09:01:12.773Z,100.00
2022-11-13T09:04:01.349Z,100.00
2022-11-13T09:06:50.378Z,100.00
2022-11-13T09:09:42.102Z,100.00
2022-11-13T09:12:31.228Z,100.00
2022-11-13T09:15:24.158Z,100.00
2022-11-13T09:18:12.450Z,100.00
2022-11-13T09:21:03.489Z,100.00
2022-11-13T09:23:51.239Z,100.00
2022-11-13T09:26:41.657Z,100.00
2022-11-13T09:29:29.319Z,100.00
2022-11-13T09:32:20.594Z,100.00
2022-11-13T09:35:08.945Z,100.00
2022-11-13T09:37:57.008Z,100.00
2022-11-13T09:40:46.158Z,100.00
2022-11-13T09:43:37.590Z,100.00
2022-11-13T09:46:28.280Z,100.00
2022-11-13T09:49:17.540Z,100.00
2022-11-13T09:52:06.908Z,100.00
2022-11-13T09:54:55.570Z,100.00
2022-11-13T09:57:44.151Z,100.00
2022-11-13T10:00:35.514Z,100.00
2022-11-13T10:03:54.120Z,100.00
2022-11-13T10:06:39.633Z,100.00
2022-11-13T10:09:28.910Z,100.00
2022-11-13T10:12:16.958Z,100.00
2022-11-13T10:15:05.307Z,100.00
2022-11-13T10:17:57.043Z,100.00
2022-11-13T10:20:46.581Z,100.00
2022-11-13T10:23:34.914Z,100.00
2022-11-13T10:26:24.629Z,100.00
2022-11-13T10:29:14.017Z,100.00
2022-11-13T10:32:02.761Z,100.00
2022-11-13T10:34:54.949Z,100.00
2022-11-13T10:37:48.212Z,100.00
2022-11-13T10:40:37.113Z,100.00
2022-11-13T10:43:25.991Z,100.00
2022-11-13T10:46:18.925Z,100.00
2022-11-13T10:49:13.990Z,100.00
2022-11-13T10:52:10.064Z,100.00
2022-11-13T10:55:07.973Z,100.00
2022-11-13T10:57:59.472Z,100.00
2022-11-13T11:00:49.777Z,100.00
2022-11-13T11:03:37.853Z,100.00
2022-11-13T11:06:57.647Z,100.00
2022-11-13T11:09:46.831Z,100.00
2022-11-13T11:12:34.981Z,100.00
2022-11-13T11:15:27.676Z,100.00
2022-11-13T11:18:22.671Z,100.00
2022-11-13T11:21:11.041Z,100.00
2022-11-13T11:24:00.331Z,100.00
2022-11-13T11:26:52.227Z,100.00
2022-11-13T11:29:40.655Z,100.00
2022-11-13T11:32:35.379Z,100.00
2022-11-13T11:35:24.289Z,100.00
2022-11-13T11:38:13.288Z,100.00
2022-11-13T11:41:04.673Z,100.00
2022-11-13T11:44:01.978Z,100.00
2022-11-13T11:46:49.574Z,96.65
2022-11-13T11:49:37.671Z,93.51
2022-11-13T11:52:30.307Z,96.05
2022-11-13T11:55:22.759Z,94.92
2022-11-13T11:58:16.581Z,93.37
2022-11-13T12:01:08.073Z,93.84
2022-11-13T12:03:59.688Z,90.67
2022-11-13T12:06:51.846Z,90.40
2022-11-13T12:09:41.384Z,88.49
2022-11-13T12:12:40.862Z,85.00
2022-11-13T12:15:29.687Z,85.87
2022-11-13T12:18:22.673Z,85.19
2022-11-13T12:21:18.005Z,84.31
2022-11-13T12:24:13.995Z,86.77
2022-11-13T12:27:12.967Z,86.56
2022-11-13T12:30:04.682Z,87.62
2022-11-13T12:33:05.569Z,86.87
2022-11-13T12:35:56.373Z,86.71
2022-11-13T12:38:45.763Z,86.06
2022-11-13T12:41:34.746Z,84.64
2022-11-13T12:44:24.010Z,85.55
2022-11-13T12:47:11.785Z,86.98
2022-11-13T12:50:03.583Z,85.44
2022-11-13T12:53:02.923Z,85.30
2022-11-13T12:55:59.982Z,86.82
2022-11-13T12:59:23.714Z,81.77
2022-11-13T13:02:07.225Z,84.40
2022-11-13T13:05:01.237Z,87.07
2022-11-13T13:07:54.183Z,80.43
2022-11-13T13:10:48.112Z,83.81
2022-11-13T13:13:37.981Z,81.79
2022-11-13T13:16:27.004Z,84.84
2022-11-13T13:19:26.845Z,84.00
2022-11-13T13:22:14.973Z,83.16
2022-11-13T13:25:03.549Z,79.30
2022-11-13T13:28:01.143Z,81.94
2022-11-13T13:30:51.300Z,83.97
2022-11-13T13:33:42.721Z,81.95
2022-11-13T13:36:33.719Z,80.23
2022-11-13T13:39:27.143Z,81.81
2022-11-13T13:42:19.240Z,81.88
2022-11-13T13:45:23.827Z,84.67
2022-11-13T13:48:13.719Z,83.86
2022-11-13T13:51:01.891Z,83.83
2022-11-13T13:53:49.912Z,84.87
2022-11-13T13:56:37.922Z,86.70
2022-11-13T13:59:26.698Z,84.75
2022-11-13T14:02:20.594Z,83.79
2022-11-13T14:05:19.702Z,82.99
2022-11-13T14:08:07.621Z,83.22
2022-11-13T14:10:55.429Z,81.63
2022-11-13T14:13:43.670Z,82.39
2022-11-13T14:16:31.774Z,83.31
2022-11-13T14:19:22.551Z,83.23
2022-11-13T14:22:11.185Z,84.33
2022-11-13T14:24:59.784Z,85.08
2022-11-13T14:27:47.585Z,84.35
2022-11-13T14:30:35.816Z,86.49
2022-11-13T14:33:24.691Z,88.79
2022-11-13T14:36:15.320Z,85.39
2022-11-13T14:39:04.121Z,86.26
2022-11-13T14:41:52.869Z,88.99
2022-11-13T14:44:40.713Z,89.03
2022-11-13T14:47:30.063Z,90.17
2022-11-13T14:50:22.736Z,91.25
2022-11-13T14:53:13.317Z,90.92
2022-11-13T14:56:02.179Z,90.18
2022-11-13T14:58:50.088Z,91.26
2022-11-13T15:01:38.223Z,91.90
2022-11-13T15:04:26.356Z,92.26
2022-11-13T15:07:24.724Z,92.31
2022-11-13T15:10:16.392Z,92.41
2022-11-13T15:13:04.447Z,92.74
2022-11-13T15:15:52.175Z,92.79
2022-11-13T15:18:39.668Z,92.53
2022-11-13T15:21:27.337Z,92.54
2022-11-13T15:24:15.650Z,92.17
2022-11-13T15:27:06.942Z,92.56
2022-11-13T15:29:54.860Z,93.09
2022-11-13T15:32:42.875Z,93.49
2022-11-13T15:35:30.884Z,92.63
2022-11-13T15:38:19.006Z,93.76
2022-11-13T15:41:10.598Z,95.07
2022-11-13T15:44:01.224Z,94.30
2022-11-13T15:46:48.949Z,94.60
2022-11-13T15:49:36.676Z,94.26
2022-11-13T15:52:24.415Z,94.51
2022-11-13T15:55:19.890Z,94.80
2022-11-13T15:58:07.802Z,95.56
2022-11-13T16:00:58.507Z,95.62
2022-11-13T16:03:46.278Z,95.41
2022-11-13T16:06:34.186Z,95.73
2022-11-13T16:09:21.922Z,95.76
2022-11-13T16:12:11.282Z,95.51
2022-11-13T16:14:59.136Z,96.04
2022-11-13T16:17:50.587Z,96.35
2022-11-13T16:20:38.377Z,96.31
2022-11-13T16:23:26.428Z,96.85
2022-11-13T16:26:16.006Z,97.07
2022-11-13T16:29:19.227Z,97.34
2022-11-13T16:32:06.997Z,97.50
2022-11-13T16:34:57.259Z,97.98
2022-11-13T16:37:44.958Z,98.27
2022-11-13T16:40:32.983Z,98.35
2022-11-13T16:43:21.029Z,98.57
2022-11-13T16:46:15.642Z,98.92
2022-11-13T16:49:03.635Z,98.86
2022-11-13T16:51:54.011Z,98.50
2022-11-13T16:54:41.835Z,98.96
2022-11-13T16:57:29.627Z,98.71
2022-11-13T17:00:19.202Z,99.26
2022-11-13T17:03:07.138Z,100.00
2022-11-13T17:05:54.855Z,100.00
2022-11-13T17:08:45.357Z,100.00
2022-11-13T17:11:34.019Z,100.00
2022-11-13T17:14:22.110Z,100.00
2022-11-13T17:17:10.198Z,100.00
2022-11-13T17:19:58.094Z,100.00
2022-11-13T17:22:49.026Z,100.00
2022-11-13T17:25:39.557Z,100.00
2022-11-13T17:28:27.633Z,100.00
2022-11-13T17:31:15.390Z,100.00
2022-11-13T17:34:03.213Z,100.00
2022-11-13T17:36:51.050Z,100.00
2022-11-13T17:39:38.930Z,100.00
2022-11-13T17:42:30.150Z,100.00
2022-11-13T17:45:18.320Z,100.00
2022-11-13T17:48:06.108Z,100.00
2022-11-13T17:50:58.328Z,100.00
2022-11-13T17:53:46.631Z,100.00
2022-11-13T17:56:35.471Z,100.00
2022-11-13T17:59:26.011Z,100.00
2022-11-13T18:02:14.099Z,100.00
2022-11-13T18:05:04.213Z,100.00
2022-11-13T18:07:52.182Z,100.00
2022-11-13T18:10:40.692Z,100.00
2022-11-13T18:13:28.930Z,100.00
2022-11-13T18:16:21.195Z,100.00
2022-11-13T18:19:09.566Z,100.00
2022-11-13T18:21:57.538Z,100.00
2022-11-13T18:24:45.243Z,100.00
2022-11-13T18:27:33.122Z,100.00
2022-11-13T18:30:22.635Z,100.00
2022-11-13T18:33:13.210Z,100.00
2022-11-13T18:36:01.093Z,100.00
2022-11-13T18:38:48.959Z,100.00
2022-11-13T18:41:37.533Z,100.00
2022-11-13T18:44:25.721Z,100.00
2022-11-13T18:47:13.418Z,100.00
2022-11-13T18:50:03.851Z,100.00
2022-11-13T18:52:51.682Z,100.00
2022-11-13T18:55:39.590Z,100.00
2022-11-13T18:58:27.501Z,100.00
2022-11-13T19:01:20.673Z,100.00
2022-11-13T19:04:27.442Z,100.00
2022-11-13T19:07:18.159Z,100.00
2022-11-13T19:10:06.549Z,100.00
2022-11-13T19:12:54.585Z,100.00
2022-11-13T19:15:42.324Z,100.00
2022-11-13T19:18:30.694Z,100.00
2022-11-13T19:21:19.691Z,100.00
2022-11-13T19:24:11.754Z,100.00
2022-11-13T19:26:59.802Z,100.00
2022-11-13T19:29:47.683Z,100.00
2022-11-13T19:32:35.295Z,100.00
2022-11-13T19:35:23.233Z,100.00
2022-11-13T19:38:11.131Z,100.00
2022-11-13T19:41:01.791Z,100.00
2022-11-13T19:43:49.585Z,100.00
2022-11-13T19:46:37.255Z,100.00
2022-11-13T19:49:25.001Z,100.00
2022-11-13T19:52:12.948Z,100.00
2022-11-13T19:55:00.818Z,100.00
2022-11-13T19:57:51.199Z,100.00
2022-11-13T20:00:38.937Z,100.00
2022-11-13T20:03:27.449Z,100.00
2022-11-13T20:06:16.683Z,100.00
2022-11-13T20:09:05.085Z,100.00
2022-11-13T20:11:53.119Z,100.00
2022-11-13T20:14:43.401Z,100.00
2022-11-13T20:17:31.283Z,100.00
2022-11-13T20:20:19.504Z,100.00
2022-11-13T20:23:07.448Z,100.00
2022-11-13T20:25:55.895Z,100.00
2022-11-13T20:28:43.615Z,100.00
2022-11-13T20:31:34.037Z,100.00
2022-11-13T20:34:21.881Z,100.00
2022-11-13T20:37:09.463Z,100.00
2022-11-13T20:39:57.309Z,100.00
2022-11-13T20:42:45.413Z,100.00
2022-11-13T20:45:33.243Z,100.00
2022-11-13T20:48:24.768Z,100.00
2022-11-13T20:51:13.437Z,100.00
2022-11-13T20:54:01.513Z,100.00
2022-11-13T20:56:49.581Z,100.00
2022-11-13T20:59:37.534Z,100.00
2022-11-13T21:02:25.428Z,100.00
2022-11-13T21:05:15.880Z,100.00
2022-11-13T21:08:03.711Z,100.00
2022-11-13T21:10:51.449Z,100.00
2022-11-13T21:13:39.443Z,100.00
2022-11-13T21:16:28.122Z,100.00
2022-11-13T21:19:16.172Z,100.00
2022-11-13T21:22:06.659Z,100.00
2022-11-13T21:24:54.698Z,100.00
2022-11-13T21:27:42.484Z,100.00
2022-11-13T21:30:30.516Z,100.00
2022-11-13T21:33:18.367Z,100.00
2022-11-13T21:36:06.760Z,100.00
2022-11-13T21:38:58.346Z,100.00
2022-11-13T21:41:46.315Z,100.00
2022-11-13T21:44:34.063Z,100.00
2022-11-13T21:47:21.867Z,100.00
2022-11-13T21:50:10.379Z,100.00
2022-11-13T21:52:58.291Z,100.00
2022-11-13T21:55:53.690Z,100.00
2022-11-13T21:58:42.270Z,100.00
2022-11-13T22:01:35.078Z,100.00
2022-11-13T22:04:26.175Z,100.00
2022-11-13T22:07:14.234Z,100.00
2022-11-13T22:10:07.934Z,100.00
2022-11-13T22:12:58.806Z,100.00
2022-11-13T22:15:46.745Z,100.00
2022-11-13T22:18:34.677Z,100.00
2022-11-13T22:21:23.066Z,100.00
2022-11-13T22:24:10.953Z,100.00
2022-11-13T22:26:58.874Z,100.00
2022-11-13T22:29:49.427Z,100.00
2022-11-13T22:32:37.193Z,100.00
2022-11-13T22:35:25.159Z,100.00
2022-11-13T22:38:13.353Z,100.00
2022-11-13T22:41:04.433Z,100.00
2022-11-13T22:43:53.006Z,100.00
2022-11-13T22:46:43.524Z,100.00
2022-11-13T22:49:31.285Z,100.00
2022-11-13T22:52:19.046Z,100.00
2022-11-13T22:55:07.359Z,100.00
2022-11-13T22:57:55.060Z,100.00
2022-11-13T23:00:42.857Z,100.00
2022-11-13T23:03:33.241Z,100.00
2022-11-13T23:06:21.393Z,100.00
2022-11-13T23:09:09.468Z,100.00
2022-11-13T23:11:57.633Z,100.00
2022-11-13T23:14:45.342Z,100.00
2022-11-13T23:17:33.102Z,100.00
2022-11-13T23:20:23.462Z,100.00
2022-11-13T23:23:11.264Z,100.00
2022-11-13T23:25:59.515Z,100.00
2022-11-13T23:28:47.349Z,100.00
2022-11-13T23:31:35.400Z,100.00
2022-11-13T23:34:45.321Z,100.00
2022-11-13T23:37:33.810Z,100.00
2022-11-13T23:40:22.014Z,100.00
2022-11-13T23:43:10.207Z,100.00
2022-11-13T23:45:58.239Z,100.00
2022-11-13T23:48:46.032Z,100.00
2022-11-13T23:51:34.103Z,100.00
2022-11-13T23:54:25.033Z,100.00
2022-11-13T23:57:12.821Z,100.00
